Time;durP1;ratioP1;P1;durP2;ratioP2;P2;SDS_P1;SDS_P2;PMS_P1;PMS_P2;Temp;Humidity;BMP_temperature;BMP_pressure;BME280_temperature;BME280_humidity;BME280_pressure;Samples;Min_cycle;Max_cycle;Signal;HPM_P1;HPM_P2
2023/12/12 00:00:30;;;;;;;7.9;5.2;;;;;;;3.81;100;933.0371;;;;
2023/12/12 00:03:08;;;;;;;10.4;5.7;;;;;;;3.78;99.93945;933.0591;;;;
2023/12/12 00:05:33;;;;;;;12;6.8;;;;;;;3.76;100;933.0569;;;;
2023/12/12 00:08:05;;;;;;;12.3;8.4;;;;;;;3.95;99.50684;933.1369;;;;
2023/12/12 00:10:48;;;;;;;12.9;8.4;;;;;;;3.73;100;933.1417;;;;
2023/12/12 00:13:24;;;;;;;12;6.1;;;;;;;3.65;100;933.1775;;;;
2023/12/12 00:15:49;;;;;;;9.6;5.8;;;;;;;3.83;100;933.0542;;;;
2023/12/12 00:18:15;;;;;;;8.2;5;;;;;;;3.74;100;932.9327;;;;
2023/12/12 00:20:42;;;;;;;6.7;4.4;;;;;;;3.95;99.84668;932.9275;;;;
2023/12/12 00:23:10;;;;;;;5.2;3.8;;;;;;;3.93;100;932.9041;;;;
2023/12/12 00:25:35;;;;;;;4.9;3.1;;;;;;;4.02;100;932.9175;;;;
2023/12/12 00:28:03;;;;;;;4.8;3;;;;;;;4.02;100;932.8434;;;;
2023/12/12 00:30:44;;;;;;;2.8;2.3;;;;;;;3.92;100;932.7227;;;;
2023/12/12 00:33:13;;;;;;;3.1;2.5;;;;;;;3.91;100;932.8311;;;;
2023/12/12 00:35:58;;;;;;;3.6;2.3;;;;;;;4.08;100;932.7347;;;;
2023/12/12 00:38:28;;;;;;;2.4;2;;;;;;;4.07;100;932.6825;;;;
2023/12/12 00:40:51;;;;;;;1.7;1.6;;;;;;;4.07;100;932.7361;;;;
2023/12/12 00:43:22;;;;;;;1.6;1.5;;;;;;;4.18;100;932.7748;;;;
2023/12/12 00:45:45;;;;;;;1.3;1.2;;;;;;;4.13;100;932.7029;;;;
2023/12/12 00:48:11;;;;;;;1.4;1.3;;;;;;;4.07;100;932.755;;;;
2023/12/12 00:50:39;;;;;;;1.8;1.4;;;;;;;4.22;100;932.7567;;;;
2023/12/12 00:53:06;;;;;;;1.2;1.1;;;;;;;4.24;100;932.7366;;;;
2023/12/12 00:55:31;;;;;;;1.3;1.2;;;;;;;4.15;99.95898;932.8184;;;;
2023/12/12 00:57:59;;;;;;;1.2;1.1;;;;;;;4.08;100;932.8875;;;;
2023/12/12 01:00:26;;;;;;;1.6;0.9;;;;;;;4.03;100;932.9139;;;;
2023/12/12 01:02:56;;;;;;;1.1;1;;;;;;;4.05;100;933.0192;;;;
2023/12/12 01:05:21;;;;;;;1.6;1.3;;;;;;;4.07;99.92676;933.022;;;;
2023/12/12 01:08:08;;;;;;;2.9;1.6;;;;;;;4.01;99.69043;933.0048;;;;
2023/12/12 01:10:32;;;;;;;3.9;2.3;;;;;;;3.93;100;933.1837;;;;
2023/12/12 01:13:00;;;;;;;3.8;2.9;;;;;;;3.91;100;933.0759;;;;
2023/12/12 01:15:23;;;;;;;5.3;2.9;;;;;;;3.86;100;933.1322;;;;
2023/12/12 01:17:50;;;;;;;3.6;2.7;;;;;;;3.87;100;933.1481;;;;
2023/12/12 01:20:16;;;;;;;4.1;2.5;;;;;;;3.87;100;933.1678;;;;
2023/12/12 01:22:45;;;;;;;4.2;2.2;;;;;;;3.92;100;933.2062;;;;
2023/12/12 01:25:20;;;;;;;2.9;1.8;;;;;;;3.94;100;933.2564;;;;
2023/12/12 01:27:50;;;;;;;3.1;1.9;;;;;;;4.04;100;933.2198;;;;
2023/12/12 01:30:16;;;;;;;2.3;1.9;;;;;;;3.92;100;933.3148;;;;
2023/12/12 01:32:45;;;;;;;2.9;2;;;;;;;4.11;99.55664;933.2744;;;;
2023/12/12 01:35:10;;;;;;;2.4;2;;;;;;;4.02;99.21875;933.3027;;;;
2023/12/12 01:37:38;;;;;;;1.8;1.6;;;;;;;3.99;99.38086;933.29;;;;
2023/12/12 01:40:04;;;;;;;2.3;1.7;;;;;;;3.94;99.4375;933.2839;;;;
2023/12/12 01:42:28;;;;;;;2.6;1.7;;;;;;;3.82;100;933.1603;;;;
2023/12/12 01:44:54;;;;;;;2.3;1.6;;;;;;;3.77;100;933.1722;;;;
2023/12/12 01:47:19;;;;;;;3.1;1.9;;;;;;;3.75;100;933.073;;;;
2023/12/12 01:49:44;;;;;;;3.3;1.9;;;;;;;3.73;100;933.027;;;;
2023/12/12 01:52:11;;;;;;;1.7;1.6;;;;;;;3.68;100;932.9832;;;;
2023/12/12 01:54:36;;;;;;;2;1.6;;;;;;;3.69;100;932.8006;;;;
2023/12/12 01:57:01;;;;;;;4.2;1.7;;;;;;;3.7;100;932.793;;;;
2023/12/12 01:59:29;;;;;;;1.7;1.5;;;;;;;3.83;100;932.925;;;;
2023/12/12 02:01:54;;;;;;;2;1.5;;;;;;;3.91;100;932.8546;;;;
2023/12/12 02:04:19;;;;;;;2;1.5;;;;;;;3.8;100;933.0389;;;;
2023/12/12 02:06:47;;;;;;;2.5;1.9;;;;;;;3.83;100;933.0076;;;;
2023/12/12 02:09:11;;;;;;;2.8;1.8;;;;;;;3.72;100;932.9471;;;;
2023/12/12 02:11:38;;;;;;;2.1;1.8;;;;;;;3.71;100;932.9539;;;;
2023/12/12 02:14:08;;;;;;;2.4;2.1;;;;;;;3.7;100;932.8159;;;;
2023/12/12 02:16:32;;;;;;;3.8;2.1;;;;;;;3.79;100;932.9395;;;;
2023/12/12 02:18:57;;;;;;;3.1;2.3;;;;;;;3.7;100;932.9656;;;;
2023/12/12 02:21:25;;;;;;;4.2;2.2;;;;;;;3.7;100;932.8387;;;;
2023/12/12 02:23:50;;;;;;;2.9;2.1;;;;;;;3.92;99.4541;932.8596;;;;
2023/12/12 02:26:15;;;;;;;3.6;2.4;;;;;;;3.84;99.38965;932.8521;;;;
2023/12/12 02:28:40;;;;;;;4.1;2.4;;;;;;;3.78;99.80469;932.8069;;;;
2023/12/12 02:31:05;;;;;;;3.1;2.2;;;;;;;3.64;100;932.8767;;;;
2023/12/12 02:33:34;;;;;;;3;2.1;;;;;;;3.68;100;932.8759;;;;
2023/12/12 02:36:03;;;;;;;4.1;2.1;;;;;;;3.72;99.69043;932.8723;;;;
2023/12/12 02:38:28;;;;;;;3.7;1.9;;;;;;;3.65;99.9541;932.9146;;;;
2023/12/12 02:40:55;;;;;;;1.9;1.6;;;;;;;3.77;99.06934;932.8247;;;;
2023/12/12 02:43:20;;;;;;;1.6;1.5;;;;;;;3.59;99.58203;932.8405;;;;
2023/12/12 02:45:54;;;;;;;2;1.3;;;;;;;3.68;99.80371;932.9609;;;;
2023/12/12 02:48:22;;;;;;;1.5;1.2;;;;;;;3.67;99.83496;932.9387;;;;
2023/12/12 02:50:47;;;;;;;1.2;1;;;;;;;3.81;99.6084;932.8403;;;;
2023/12/12 02:53:13;;;;;;;1.5;1.4;;;;;;;3.96;99.05957;933.0214;;;;
2023/12/12 02:55:38;;;;;;;1.5;1.4;;;;;;;3.72;100;932.9874;;;;
2023/12/12 02:58:06;;;;;;;1.4;1.3;;;;;;;3.74;100;932.9586;;;;
2023/12/12 03:00:31;;;;;;;1.4;1.3;;;;;;;3.72;100;932.9322;;;;
2023/12/12 03:03:00;;;;;;;1.7;1.4;;;;;;;3.71;100;932.9005;;;;
2023/12/12 03:05:26;;;;;;;1.7;1.3;;;;;;;3.72;100;932.9731;;;;
2023/12/12 03:07:52;;;;;;;1.2;1.2;;;;;;;3.8;100;932.905;;;;
2023/12/12 03:10:17;;;;;;;2.1;1.3;;;;;;;3.82;100;932.85;;;;
2023/12/12 03:12:48;;;;;;;1.2;1.1;;;;;;;3.83;100;932.8125;;;;
2023/12/12 03:15:20;;;;;;;1.4;1;;;;;;;3.83;100;932.7629;;;;
2023/12/12 03:17:50;;;;;;;0.8;0.8;;;;;;;3.84;100;932.7977;;;;
2023/12/12 03:20:21;;;;;;;1;0.9;;;;;;;3.96;100;932.7536;;;;
2023/12/12 03:22:46;;;;;;;1.1;0.6;;;;;;;4.04;100;932.7392;;;;
2023/12/12 03:25:16;;;;;;;0.8;0.7;;;;;;;4.11;100;932.6669;;;;
2023/12/12 03:27:43;;;;;;;1;0.7;;;;;;;4.21;100;932.6555;;;;
2023/12/12 03:30:09;;;;;;;0.5;0.5;;;;;;;4.2;100;932.6738;;;;
2023/12/12 03:32:37;;;;;;;0.9;0.6;;;;;;;4.2;100;932.7274;;;;
2023/12/12 03:35:10;;;;;;;0.5;0.5;;;;;;;4.28;100;932.7651;;;;
2023/12/12 03:37:39;;;;;;;2.4;0.7;;;;;;;4.22;100;932.7898;;;;
2023/12/12 03:40:13;;;;;;;1;0.5;;;;;;;4.22;100;932.9016;;;;
2023/12/12 03:42:44;;;;;;;0.7;0.6;;;;;;;4.19;100;932.8965;;;;
2023/12/12 03:45:18;;;;;;;1.5;1.2;;;;;;;4.35;100;932.8148;;;;
2023/12/12 03:47:48;;;;;;;3.1;2.1;;;;;;;4.22;100;932.9283;;;;
2023/12/12 03:50:13;;;;;;;4.2;2.4;;;;;;;4.16;100;932.9304;;;;
2023/12/12 03:52:41;;;;;;;5.2;2.6;;;;;;;4.06;100;932.7927;;;;
2023/12/12 03:55:05;;;;;;;3.1;1.8;;;;;;;4.03;100;932.7642;;;;
2023/12/12 03:57:32;;;;;;;3.3;2;;;;;;;4.05;100;932.838;;;;
2023/12/12 03:59:57;;;;;;;2.6;1.6;;;;;;;3.99;100;932.8228;;;;
2023/12/12 04:02:35;;;;;;;2.7;2.1;;;;;;;4.14;100;932.7882;;;;
2023/12/12 04:05:09;;;;;;;2.2;1.7;;;;;;;4.09;100;932.8058;;;;
2023/12/12 04:07:32;;;;;;;2.2;1.7;;;;;;;4.05;100;932.8333;;;;
2023/12/12 04:09:59;;;;;;;1.7;1.5;;;;;;;4.16;100;932.7288;;;;
2023/12/12 04:12:30;;;;;;;3.6;2.2;;;;;;;4.15;100;932.6758;;;;
2023/12/12 04:14:55;;;;;;;4;2.2;;;;;;;4.11;100;932.5844;;;;
2023/12/12 04:17:24;;;;;;;5.2;3.1;;;;;;;4.2;100;932.5731;;;;
2023/12/12 04:19:53;;;;;;;3.9;2.6;;;;;;;4.03;100;932.5335;;;;
2023/12/12 04:22:26;;;;;;;3.3;2.4;;;;;;;4.04;100;932.592;;;;
2023/12/12 04:24:56;;;;;;;2.9;2;;;;;;;4.07;100;932.5887;;;;
2023/12/12 04:27:21;;;;;;;2.3;1.9;;;;;;;4.08;100;932.5567;;;;
2023/12/12 04:29:54;;;;;;;2.8;2.4;;;;;;;4.09;100;932.5869;;;;
2023/12/12 04:32:19;;;;;;;4.3;2.3;;;;;;;4.14;100;932.5148;;;;
2023/12/12 04:34:45;;;;;;;3.3;2.6;;;;;;;4.06;100;932.3688;;;;
2023/12/12 04:37:27;;;;;;;3.5;2.1;;;;;;;4.08;100;932.3084;;;;
2023/12/12 04:39:46;;;;;;;2.6;1.9;;;;;;;3.91;100;932.342;;;;
2023/12/12 04:42:11;;;;;;;3.6;2.3;;;;;;;3.92;100;932.2605;;;;
2023/12/12 04:44:38;;;;;;;2.8;2.1;;;;;;;3.98;100;932.3625;;;;
2023/12/12 04:47:03;;;;;;;2.7;2.1;;;;;;;4.07;100;932.3689;;;;
2023/12/12 04:49:35;;;;;;;1.7;1.5;;;;;;;4.03;100;932.4553;;;;
2023/12/12 04:52:01;;;;;;;2;1.6;;;;;;;4.02;100;932.5237;;;;
2023/12/12 04:54:25;;;;;;;2.4;1.8;;;;;;;3.97;100;932.416;;;;
2023/12/12 04:56:54;;;;;;;3.3;2.2;;;;;;;3.96;100;932.4489;;;;
2023/12/12 04:59:18;;;;;;;4.1;2.1;;;;;;;3.98;100;932.4674;;;;
2023/12/12 05:01:48;;;;;;;3.3;2.5;;;;;;;4.03;100;932.572;;;;
2023/12/12 05:04:14;;;;;;;3.9;2.5;;;;;;;3.98;100;932.6863;;;;
2023/12/12 05:06:41;;;;;;;7.6;4.6;;;;;;;4.07;100;932.6092;;;;
2023/12/12 05:09:06;;;;;;;7.6;4.9;;;;;;;4.08;100;932.5181;;;;
2023/12/12 05:11:36;;;;;;;24.9;17.5;;;;;;;4.09;100;932.5388;;;;
2023/12/12 05:14:04;;;;;;;80.9;58;;;;;;;4.02;100;932.4908;;;;
2023/12/12 05:16:27;;;;;;;69.7;50.5;;;;;;;4.05;100;932.5561;;;;
2023/12/12 05:18:52;;;;;;;31.8;24.6;;;;;;;4.2;100;932.5516;;;;
2023/12/12 05:21:21;;;;;;;12.5;10.6;;;;;;;4.2;100;932.6697;;;;
2023/12/12 05:23:45;;;;;;;13.5;10.3;;;;;;;4.17;100;932.64;;;;
2023/12/12 05:26:10;;;;;;;11.6;9.8;;;;;;;4.19;100;932.6641;;;;
2023/12/12 05:28:38;;;;;;;8.3;7.3;;;;;;;4.05;100;932.7372;;;;
2023/12/12 05:31:03;;;;;;;5.8;4.3;;;;;;;4.02;100;932.6594;;;;
2023/12/12 05:33:30;;;;;;;5;3.9;;;;;;;4.12;100;932.7553;;;;
2023/12/12 05:35:55;;;;;;;5.6;4.4;;;;;;;4.16;100;932.921;;;;
2023/12/12 05:38:25;;;;;;;4.4;4;;;;;;;4.13;100;932.8133;;;;
2023/12/12 05:40:56;;;;;;;2.9;2.6;;;;;;;4.13;100;932.9431;;;;
2023/12/12 05:43:20;;;;;;;3.2;2.7;;;;;;;4.14;100;932.9197;;;;
2023/12/12 05:45:49;;;;;;;3.6;2.6;;;;;;;4.18;100;932.9467;;;;
2023/12/12 05:48:14;;;;;;;4;2.8;;;;;;;4.27;100;932.757;;;;
2023/12/12 05:50:39;;;;;;;4.5;4;;;;;;;4.29;100;932.7622;;;;
2023/12/12 05:53:08;;;;;;;5.6;5.1;;;;;;;4.41;100;932.7817;;;;
2023/12/12 05:55:38;;;;;;;8.1;7.4;;;;;;;4.33;100;932.8678;;;;
2023/12/12 05:58:04;;;;;;;8.9;7.2;;;;;;;4.32;100;932.8339;;;;
2023/12/12 06:00:29;;;;;;;5.5;4.6;;;;;;;4.26;100;932.6836;;;;
2023/12/12 06:02:54;;;;;;;5.2;4;;;;;;;4.22;100;932.6644;;;;
2023/12/12 06:05:19;;;;;;;6;4.1;;;;;;;4.22;100;932.6975;;;;
2023/12/12 06:07:44;;;;;;;8.5;5;;;;;;;4.19;100;932.6537;;;;
2023/12/12 06:10:12;;;;;;;7;5.3;;;;;;;4.33;100;932.4675;;;;
2023/12/12 06:12:37;;;;;;;6.9;5.1;;;;;;;4.38;100;932.5413;;;;
2023/12/12 06:15:07;;;;;;;5.7;4.5;;;;;;;4.44;100;932.6297;;;;
2023/12/12 06:17:29;;;;;;;4;3.3;;;;;;;4.29;100;932.5714;;;;
2023/12/12 06:19:56;;;;;;;4;3;;;;;;;4.26;100;932.611;;;;
2023/12/12 06:22:21;;;;;;;3.4;3.1;;;;;;;4.29;100;932.6771;;;;
2023/12/12 06:24:51;;;;;;;4.3;3.2;;;;;;;4.33;100;932.6156;;;;
2023/12/12 06:27:14;;;;;;;4;3.3;;;;;;;4.26;100;932.6195;;;;
2023/12/12 06:29:42;;;;;;;3.9;3.5;;;;;;;4.23;100;932.4811;;;;
2023/12/12 06:32:08;;;;;;;4;3.6;;;;;;;4.25;100;932.5767;;;;
2023/12/12 06:34:36;;;;;;;4.9;3.7;;;;;;;4.22;100;932.4249;;;;
2023/12/12 06:37:01;;;;;;;5.8;4.8;;;;;;;4.28;100;932.464;;;;
2023/12/12 06:39:28;;;;;;;5.2;4;;;;;;;4.26;100;932.4487;;;;
2023/12/12 06:41:53;;;;;;;7.8;5;;;;;;;4.26;100;932.4786;;;;
2023/12/12 06:44:21;;;;;;;13.9;9.4;;;;;;;4.26;100;932.4976;;;;
2023/12/12 06:46:46;;;;;;;21.3;13.1;;;;;;;4.32;100;932.4681;;;;
2023/12/12 06:49:11;;;;;;;30;18.9;;;;;;;4.46;100;932.4456;;;;
2023/12/12 06:51:39;;;;;;;27.8;16.6;;;;;;;4.49;100;932.4186;;;;
2023/12/12 06:54:05;;;;;;;20.6;14.1;;;;;;;4.46;100;932.351;;;;
2023/12/12 06:56:30;;;;;;;12.7;9.9;;;;;;;4.39;100;932.2656;;;;
2023/12/12 06:58:57;;;;;;;11.1;8.4;;;;;;;4.37;100;932.1753;;;;
2023/12/12 07:01:22;;;;;;;5;4.4;;;;;;;4.38;100;932.2852;;;;
2023/12/12 07:03:57;;;;;;;7.4;4.9;;;;;;;4.43;100;932.3867;;;;
2023/12/12 07:06:23;;;;;;;5.3;4.1;;;;;;;4.43;100;932.3314;;;;
2023/12/12 07:08:51;;;;;;;5.3;4.8;;;;;;;4.47;100;932.3724;;;;
2023/12/12 07:11:15;;;;;;;4.2;3.4;;;;;;;4.45;100;932.3903;;;;
2023/12/12 07:13:46;;;;;;;3.9;3.4;;;;;;;4.42;100;932.1697;;;;
2023/12/12 07:16:10;;;;;;;2.8;2.6;;;;;;;4.4;100;932.1236;;;;
2023/12/12 07:18:37;;;;;;;3.9;1.9;;;;;;;4.49;100;932.2563;;;;
2023/12/12 07:21:08;;;;;;;2.7;2;;;;;;;4.56;100;932.3414;;;;
2023/12/12 07:23:34;;;;;;;3.1;2.3;;;;;;;4.52;100;932.2294;;;;
2023/12/12 07:26:03;;;;;;;7.5;5.3;;;;;;;4.6;100;932.3621;;;;
2023/12/12 07:28:35;;;;;;;14.3;8.8;;;;;;;4.62;100;932.3887;;;;
2023/12/12 07:31:02;;;;;;;12.3;8.3;;;;;;;4.67;100;932.3417;;;;
2023/12/12 07:33:29;;;;;;;14.2;9.7;;;;;;;4.77;100;932.3383;;;;
2023/12/12 07:35:54;;;;;;;15;9.4;;;;;;;4.82;100;932.1756;;;;
2023/12/12 07:38:25;;;;;;;13.1;9;;;;;;;4.81;100;932.1652;;;;
2023/12/12 07:40:54;;;;;;;12.6;9.1;;;;;;;4.74;100;932.1351;;;;
2023/12/12 07:43:24;;;;;;;12.7;9.1;;;;;;;4.74;100;932.1919;;;;
2023/12/12 07:45:57;;;;;;;11.1;9;;;;;;;4.76;100;932.2119;;;;
2023/12/12 07:48:22;;;;;;;11.4;8.2;;;;;;;4.82;100;932.2751;;;;
2023/12/12 07:50:47;;;;;;;25;22.4;;;;;;;4.8;100;932.2333;;;;
2023/12/12 07:53:18;;;;;;;22.6;20.2;;;;;;;4.83;100;932.3219;;;;
2023/12/12 07:55:48;;;;;;;15.4;12.3;;;;;;;4.93;100;932.2963;;;;
2023/12/12 07:58:13;;;;;;;18.1;16.3;;;;;;;4.95;100;932.3329;;;;
2023/12/12 08:00:43;;;;;;;9.6;7.8;;;;;;;5.09;100;932.2912;;;;
2023/12/12 08:03:14;;;;;;;4.8;4;;;;;;;5.01;100;932.3267;;;;
2023/12/12 08:05:38;;;;;;;5.5;3.9;;;;;;;5.09;100;932.2816;;;;
2023/12/12 08:08:06;;;;;;;5.7;4;;;;;;;5.08;100;932.1828;;;;
2023/12/12 08:10:31;;;;;;;5.8;4.2;;;;;;;5.14;100;932.1233;;;;
2023/12/12 08:12:57;;;;;;;4.1;3.7;;;;;;;5.17;100;932.1387;;;;
2023/12/12 08:15:28;;;;;;;5.9;3.8;;;;;;;5.28;100;932.0709;;;;
2023/12/12 08:17:57;;;;;;;4.2;3.5;;;;;;;5.32;100;932.0426;;;;
2023/12/12 08:20:22;;;;;;;5.6;3.7;;;;;;;5.42;100;932.0036;;;;
2023/12/12 08:22:52;;;;;;;8.2;6.7;;;;;;;5.45;100;932.0927;;;;
2023/12/12 08:25:18;;;;;;;8.4;7;;;;;;;5.4;100;932.1253;;;;
2023/12/12 08:27:48;;;;;;;8.1;5.8;;;;;;;5.5;100;932.1023;;;;
2023/12/12 08:30:18;;;;;;;19.4;15;;;;;;;5.52;100;932.0773;;;;
2023/12/12 08:32:51;;;;;;;22;14.7;;;;;;;5.54;100;932.125;;;;
2023/12/12 08:35:22;;;;;;;13.9;10.8;;;;;;;5.44;100;932.0798;;;;
2023/12/12 08:37:52;;;;;;;21;13.2;;;;;;;5.36;100;932.0985;;;;
2023/12/12 08:40:21;;;;;;;15.3;10.8;;;;;;;5.46;100;932.1213;;;;
2023/12/12 08:42:54;;;;;;;15.2;10.3;;;;;;;5.4;100;932.1071;;;;
2023/12/12 08:45:19;;;;;;;12.7;9.2;;;;;;;5.39;100;932.1085;;;;
2023/12/12 08:47:46;;;;;;;13.5;9.1;;;;;;;5.39;100;932.1725;;;;
2023/12/12 08:50:15;;;;;;;11.5;8.2;;;;;;;5.46;100;932.2095;;;;
2023/12/12 08:52:40;;;;;;;14.7;10.3;;;;;;;5.51;100;932.2019;;;;
2023/12/12 08:55:18;;;;;;;12.8;8.6;;;;;;;5.52;100;932.0986;;;;
2023/12/12 08:57:48;;;;;;;11;8.3;;;;;;;5.46;100;932.1116;;;;
2023/12/12 09:00:21;;;;;;;11.2;7.4;;;;;;;5.47;100;932.1917;;;;
2023/12/12 09:02:49;;;;;;;11.2;8.4;;;;;;;5.44;100;932.233;;;;
2023/12/12 09:05:36;;;;;;;14.2;8.7;;;;;;;5.41;100;932.2506;;;;
2023/12/12 09:07:57;;;;;;;11;7.2;;;;;;;5.49;100;932.2133;;;;
2023/12/12 09:10:25;;;;;;;11.3;8;;;;;;;5.48;100;932.2219;;;;
2023/12/12 09:12:51;;;;;;;9.1;6.4;;;;;;;5.53;100;932.1066;;;;
2023/12/12 09:15:17;;;;;;;14;8.3;;;;;;;5.52;100;932.217;;;;
2023/12/12 09:17:42;;;;;;;22.9;12.5;;;;;;;5.44;100;932.1982;;;;
2023/12/12 09:20:13;;;;;;;22.6;12.2;;;;;;;5.42;100;932.115;;;;
2023/12/12 09:22:44;;;;;;;40.1;17.2;;;;;;;5.43;100;932.0923;;;;
2023/12/12 09:25:18;;;;;;;38.2;18.1;;;;;;;5.41;100;932.1313;;;;
2023/12/12 09:27:46;;;;;;;95.5;38.6;;;;;;;5.47;100;932.1806;;;;
2023/12/12 09:30:11;;;;;;;104;43.1;;;;;;;5.52;100;932.1396;;;;
2023/12/12 09:32:41;;;;;;;58.9;27.4;;;;;;;5.57;100;932.0513;;;;
2023/12/12 09:35:06;;;;;;;34;15.8;;;;;;;5.59;100;932.0502;;;;
2023/12/12 09:37:31;;;;;;;19.1;10.5;;;;;;;5.66;100;932.0675;;;;
2023/12/12 09:39:58;;;;;;;26.7;12.5;;;;;;;5.71;100;932.0359;;;;
2023/12/12 09:42:23;;;;;;;17.2;8.2;;;;;;;5.73;100;932.0592;;;;
2023/12/12 09:44:54;;;;;;;9.3;4.9;;;;;;;5.78;100;932.106;;;;
2023/12/12 09:47:19;;;;;;;11.6;7.6;;;;;;;5.8;100;932.0305;;;;
2023/12/12 09:49:45;;;;;;;7.4;4.1;;;;;;;5.82;100;932.0625;;;;
2023/12/12 09:52:11;;;;;;;4.6;3.2;;;;;;;5.92;100;932.0148;;;;
2023/12/12 09:54:36;;;;;;;4.8;3;;;;;;;6.04;100;931.983;;;;
2023/12/12 09:57:07;;;;;;;7.1;3.3;;;;;;;6.17;100;932.0317;;;;
2023/12/12 09:59:35;;;;;;;12.2;7.7;;;;;;;6.16;100;931.9526;;;;
2023/12/12 10:02:00;;;;;;;14.5;9.3;;;;;;;6.14;100;931.8108;;;;
2023/12/12 10:04:25;;;;;;;12.5;9.1;;;;;;;6.02;100;931.7637;;;;
2023/12/12 10:06:52;;;;;;;21.2;12.8;;;;;;;6.08;100;931.7506;;;;
2023/12/12 10:09:22;;;;;;;30;16.7;;;;;;;6;100;931.7569;;;;
2023/12/12 10:11:45;;;;;;;41.6;23.5;;;;;;;6.04;100;931.6102;;;;
2023/12/12 10:14:13;;;;;;;45.5;26;;;;;;;6.01;100;931.5361;;;;
2023/12/12 10:16:42;;;;;;;47.7;30.9;;;;;;;5.97;100;931.5525;;;;
2023/12/12 10:19:07;;;;;;;69.6;46.3;;;;;;;5.93;100;931.4841;;;;
2023/12/12 10:21:44;;;;;;;45.8;32.4;;;;;;;6.01;100;931.3635;;;;
2023/12/12 10:24:11;;;;;;;37.5;30.9;;;;;;;5.95;100;931.3262;;;;
2023/12/12 10:26:34;;;;;;;28.4;21.2;;;;;;;5.93;100;931.3244;;;;
2023/12/12 10:29:03;;;;;;;26.8;19.5;;;;;;;5.96;100;931.298;;;;
2023/12/12 10:31:34;;;;;;;13.2;8.8;;;;;;;6.18;100;931.2311;;;;
2023/12/12 10:33:59;;;;;;;10.1;7.4;;;;;;;6.34;100;931.0747;;;;
2023/12/12 10:36:27;;;;;;;13.4;8;;;;;;;6.3;100;931.0442;;;;
2023/12/12 10:38:50;;;;;;;11.3;8;;;;;;;6.19;100;930.942;;;;
2023/12/12 10:41:20;;;;;;;13.2;7.8;;;;;;;6.28;100;930.9246;;;;
2023/12/12 10:43:54;;;;;;;15.9;9.3;;;;;;;6.26;100;930.8027;;;;
2023/12/12 10:46:24;;;;;;;18;10.9;;;;;;;6.31;100;930.74;;;;
2023/12/12 10:48:49;;;;;;;19.3;12;;;;;;;6.34;100;930.5814;;;;
2023/12/12 10:51:15;;;;;;;19.2;11.4;;;;;;;6.36;100;930.505;;;;
2023/12/12 10:53:40;;;;;;;12.6;8.3;;;;;;;6.49;100;930.3929;;;;
2023/12/12 10:56:10;;;;;;;13.1;8.1;;;;;;;6.58;100;930.3894;;;;
2023/12/12 10:58:36;;;;;;;13.9;8.5;;;;;;;6.54;100;930.3643;;;;
2023/12/12 11:01:02;;;;;;;20.2;11.7;;;;;;;6.63;100;930.3072;;;;
2023/12/12 11:03:26;;;;;;;22.1;13;;;;;;;6.5;100;930.2974;;;;
2023/12/12 11:05:52;;;;;;;26.7;15.4;;;;;;;6.45;100;930.2534;;;;
2023/12/12 11:08:16;;;;;;;27.5;15.8;;;;;;;6.51;100;930.33;;;;
2023/12/12 11:10:42;;;;;;;25.6;13.8;;;;;;;6.47;100;930.2355;;;;
2023/12/12 11:13:13;;;;;;;22.3;13.2;;;;;;;6.63;100;930.2193;;;;
2023/12/12 11:15:41;;;;;;;17.7;10.6;;;;;;;6.64;100;930.2075;;;;
2023/12/12 11:18:10;;;;;;;17.3;11.7;;;;;;;6.67;100;930.2473;;;;
2023/12/12 11:20:36;;;;;;;10.6;7.4;;;;;;;6.75;100;930.2981;;;;
2023/12/12 11:23:05;;;;;;;9.4;6.3;;;;;;;6.83;100;930.1869;;;;
2023/12/12 11:25:28;;;;;;;10.4;6.5;;;;;;;6.89;100;930.178;;;;
2023/12/12 11:27:55;;;;;;;24;14;;;;;;;7.01;100;930.2476;;;;
2023/12/12 11:30:20;;;;;;;33.4;17.5;;;;;;;7.03;100;930.2097;;;;
2023/12/12 11:32:45;;;;;;;48.6;24.5;;;;;;;7.06;100;930.2252;;;;
2023/12/12 11:35:16;;;;;;;55.6;28;;;;;;;7.16;100;930.1453;;;;
2023/12/12 11:37:44;;;;;;;41.2;21.9;;;;;;;7.23;100;930.0875;;;;
2023/12/12 11:40:09;;;;;;;23;12.5;;;;;;;7.37;100;930.1259;;;;
2023/12/12 11:42:42;;;;;;;14.8;10.1;;;;;;;7.3;100;930.0644;;;;
2023/12/12 11:45:07;;;;;;;25.9;22.5;;;;;;;7.27;100;930.0285;;;;
2023/12/12 11:47:38;;;;;;;27.1;24.2;;;;;;;7.26;100;930.1495;;;;
2023/12/12 11:50:16;;;;;;;19.8;16.6;;;;;;;7.25;100;930.1819;;;;
2023/12/12 11:52:45;;;;;;;32.9;18.6;;;;;;;7.25;100;930.1067;;;;
2023/12/12 11:55:12;;;;;;;22.9;14.9;;;;;;;7.26;100;930.0664;;;;
2023/12/12 11:57:39;;;;;;;169.6;64.9;;;;;;;7.35;100;930.0933;;;;
2023/12/12 12:00:04;;;;;;;199.7;80;;;;;;;7.41;100;930.0708;;;;
2023/12/12 12:02:37;;;;;;;101.8;45.3;;;;;;;7.35;100;930.1573;;;;
2023/12/12 12:05:16;;;;;;;34.2;20;;;;;;;7.33;100;930.1224;;;;
2023/12/12 12:07:44;;;;;;;18.2;12.4;;;;;;;7.29;100;930.1063;;;;
2023/12/12 12:10:13;;;;;;;22.8;14;;;;;;;7.3;100;929.9519;;;;
2023/12/12 12:12:42;;;;;;;29.8;23.2;;;;;;;7.33;100;930.025;;;;
2023/12/12 12:15:09;;;;;;;32.9;24.7;;;;;;;7.27;100;929.9478;;;;
2023/12/12 12:17:33;;;;;;;26.2;18.8;;;;;;;7.27;100;929.9771;;;;
2023/12/12 12:20:00;;;;;;;21;14.3;;;;;;;7.22;100;929.9316;;;;
2023/12/12 12:22:25;;;;;;;23.6;14.2;;;;;;;7.13;100;929.8688;;;;
2023/12/12 12:24:54;;;;;;;18.3;12.4;;;;;;;7.08;100;929.8975;;;;
2023/12/12 12:27:22;;;;;;;20;14.4;;;;;;;7.13;100;929.8181;;;;
2023/12/12 12:29:53;;;;;;;25.2;17.3;;;;;;;7.23;100;929.7408;;;;
2023/12/12 12:32:18;;;;;;;30.7;22.4;;;;;;;7.25;100;929.6625;;;;
2023/12/12 12:34:43;;;;;;;26.4;18.2;;;;;;;7.23;100;929.652;;;;
2023/12/12 12:37:11;;;;;;;31.7;19.4;;;;;;;7.25;100;929.5747;;;;
2023/12/12 12:39:37;;;;;;;24.9;16;;;;;;;7.22;100;929.5229;;;;
2023/12/12 12:42:02;;;;;;;23.5;15.9;;;;;;;7.18;100;929.4741;;;;
2023/12/12 12:44:32;;;;;;;22.4;15.4;;;;;;;7.2;100;929.4727;;;;
2023/12/12 12:46:57;;;;;;;23.1;15.6;;;;;;;7.16;100;929.5222;;;;
2023/12/12 12:49:26;;;;;;;17.6;13;;;;;;;7.12;100;929.5243;;;;
2023/12/12 12:51:51;;;;;;;15.1;10.7;;;;;;;7.12;100;929.4832;;;;
2023/12/12 12:54:20;;;;;;;14.6;9.7;;;;;;;7.1;100;929.4528;;;;
2023/12/12 12:56:46;;;;;;;14.8;10;;;;;;;7.1;100;929.4347;;;;
2023/12/12 12:59:18;;;;;;;15.3;10.6;;;;;;;7.16;100;929.3275;;;;
2023/12/12 13:01:40;;;;;;;18.4;12.3;;;;;;;7.08;100;929.3363;;;;
2023/12/12 13:04:03;;;;;;;14.9;9.9;;;;;;;7.1;100;929.3041;;;;
2023/12/12 13:06:30;;;;;;;11.8;7.9;;;;;;;7.12;100;929.225;;;;
2023/12/12 13:08:57;;;;;;;9.2;6.5;;;;;;;7.18;100;929.216;;;;
2023/12/12 13:11:20;;;;;;;7.4;4.7;;;;;;;7.14;100;929.1105;;;;
2023/12/12 13:13:50;;;;;;;5.9;3.9;;;;;;;7.27;100;929.1678;;;;
2023/12/12 13:16:15;;;;;;;4.7;3.4;;;;;;;7.32;100;929.1049;;;;
2023/12/12 13:18:43;;;;;;;9.5;5.6;;;;;;;7.22;100;929.0781;;;;
2023/12/12 13:21:09;;;;;;;13.5;7.5;;;;;;;7.23;100;929.166;;;;
2023/12/12 13:23:35;;;;;;;16.5;8.2;;;;;;;7.23;100;929.1201;;;;
2023/12/12 13:26:01;;;;;;;18.8;11.3;;;;;;;7.29;100;929.13;;;;
2023/12/12 13:28:28;;;;;;;18.5;11.2;;;;;;;7.31;100;929.1602;;;;
2023/12/12 13:30:54;;;;;;;17.1;10.5;;;;;;;7.27;100;928.9977;;;;
2023/12/12 13:33:23;;;;;;;9.9;6.6;;;;;;;7.28;100;928.8583;;;;
2023/12/12 13:35:48;;;;;;;9.4;7;;;;;;;7.31;100;928.9456;;;;
2023/12/12 13:38:13;;;;;;;19.9;11.2;;;;;;;7.28;100;928.7776;;;;
2023/12/12 13:42:22;;;;;;;15.4;9.3;;;;;;;7.21;100;928.6401;;;;
2023/12/12 13:44:47;;;;;;;9.6;5.9;;;;;;;7.36;100;928.5508;;;;
2023/12/12 13:47:19;;;;;;;6.3;4.1;;;;;;;7.45;100;928.6006;;;;
2023/12/12 13:49:45;;;;;;;4.2;2.9;;;;;;;7.45;100;928.6228;;;;
2023/12/12 13:52:09;;;;;;;5.4;3.1;;;;;;;7.59;100;928.4817;;;;
2023/12/12 13:54:35;;;;;;;8.2;4.8;;;;;;;7.43;100;928.496;;;;
2023/12/12 13:57:02;;;;;;;8;5.5;;;;;;;7.35;100;928.5087;;;;
2023/12/12 13:59:28;;;;;;;8.5;5.4;;;;;;;7.25;100;928.4599;;;;
2023/12/12 14:01:53;;;;;;;7.4;5.2;;;;;;;7.21;100;928.4641;;;;
2023/12/12 14:04:19;;;;;;;7.5;5;;;;;;;7.2;100;928.4672;;;;
2023/12/12 14:06:53;;;;;;;7.4;5.3;;;;;;;7.2;100;928.5123;;;;
2023/12/12 14:09:23;;;;;;;7.2;4.9;;;;;;;7.25;100;928.3807;;;;
2023/12/12 14:11:48;;;;;;;7.9;5.1;;;;;;;7.31;100;928.4214;;;;
2023/12/12 14:14:15;;;;;;;9;5.3;;;;;;;7.26;100;928.4623;;;;
2023/12/12 14:16:46;;;;;;;12.4;8.8;;;;;;;7.21;100;928.4612;;;;
2023/12/12 14:19:18;;;;;;;12.5;9.6;;;;;;;7.21;100;928.5761;;;;
2023/12/12 14:21:42;;;;;;;13;9.1;;;;;;;7.2;100;928.5156;;;;
2023/12/12 14:24:11;;;;;;;18.2;10.9;;;;;;;7.16;100;928.3435;;;;
2023/12/12 14:26:37;;;;;;;20.4;11.5;;;;;;;7.09;100;928.2758;;;;
2023/12/12 14:29:02;;;;;;;22.4;13.1;;;;;;;7.05;100;928.1172;;;;
2023/12/12 14:31:27;;;;;;;26.8;14.5;;;;;;;7.05;100;928.1584;;;;
2023/12/12 14:33:56;;;;;;;28.5;15.5;;;;;;;7.05;100;928.2003;;;;
2023/12/12 14:36:21;;;;;;;22.8;14.3;;;;;;;6.99;100;928.2037;;;;
2023/12/12 14:38:53;;;;;;;20.6;12.6;;;;;;;6.99;100;928.225;;;;
2023/12/12 14:41:18;;;;;;;20.9;11.7;;;;;;;6.94;100;928.2626;;;;
2023/12/12 14:43:50;;;;;;;19;11.9;;;;;;;6.9;100;928.2189;;;;
2023/12/12 14:46:14;;;;;;;20.3;13;;;;;;;6.85;100;928.2036;;;;
2023/12/12 14:48:39;;;;;;;21.1;13;;;;;;;6.81;100;928.2365;;;;
2023/12/12 14:51:06;;;;;;;18.8;12.1;;;;;;;6.75;100;928.2136;;;;
2023/12/12 14:53:31;;;;;;;15.4;10.3;;;;;;;6.78;100;928.2209;;;;
2023/12/12 14:55:56;;;;;;;13.6;8.1;;;;;;;6.78;100;928.0801;;;;
2023/12/12 14:58:25;;;;;;;9.6;7.4;;;;;;;6.78;100;927.959;;;;
2023/12/12 15:00:50;;;;;;;10;6.3;;;;;;;6.72;100;927.8828;;;;
2023/12/12 15:03:16;;;;;;;9.7;6.6;;;;;;;6.71;100;927.9388;;;;
2023/12/12 15:05:41;;;;;;;9;5.6;;;;;;;6.67;100;927.8887;;;;
2023/12/12 15:08:06;;;;;;;7.4;5.6;;;;;;;6.7;100;927.8194;;;;
2023/12/12 15:10:34;;;;;;;10.7;7.4;;;;;;;6.64;100;927.7967;;;;
2023/12/12 15:12:59;;;;;;;18.6;11.9;;;;;;;6.67;100;927.8065;;;;
2023/12/12 15:15:25;;;;;;;33.5;24;;;;;;;6.74;100;927.8045;;;;
2023/12/12 15:17:49;;;;;;;22.6;15.8;;;;;;;6.74;100;927.7191;;;;
2023/12/12 15:20:18;;;;;;;16.5;11;;;;;;;6.79;100;927.7637;;;;
2023/12/12 15:22:44;;;;;;;14.9;9.9;;;;;;;6.78;100;927.7004;;;;
2023/12/12 15:25:14;;;;;;;19.9;13.7;;;;;;;6.68;100;927.7717;;;;
2023/12/12 15:27:38;;;;;;;11.2;7.3;;;;;;;6.82;100;927.6891;;;;
2023/12/12 15:30:14;;;;;;;8.5;5;;;;;;;6.86;100;927.6323;;;;
2023/12/12 15:32:40;;;;;;;9.1;5.6;;;;;;;6.77;100;927.6512;;;;
2023/12/12 15:35:04;;;;;;;17.7;9.8;;;;;;;6.68;100;927.642;;;;
2023/12/12 15:37:32;;;;;;;23;13.1;;;;;;;6.58;100;927.5834;;;;